createdAt,value
2022-09-16T00:00:02.984Z,73
2022-09-16T00:20:03.092Z,73
2022-09-16T00:40:03.039Z,73
2022-09-16T01:00:02.753Z,72
2022-09-16T01:20:02.690Z,72
2022-09-16T01:40:03.305Z,72
2022-09-16T02:00:02.974Z,73
2022-09-16T02:20:02.828Z,74
2022-09-16T02:40:03.435Z,75
2022-09-16T03:00:02.851Z,76
2022-09-16T03:20:03.233Z,77
2022-09-16T03:40:03.150Z,77
2022-09-16T04:00:02.823Z,78
2022-09-16T04:20:02.788Z,79
2022-09-16T04:40:05.399Z,79
2022-09-16T05:00:03.140Z,79
2022-09-16T05:20:02.581Z,78
2022-09-16T05:40:03.300Z,78
2022-09-16T06:00:02.930Z,78
2022-09-16T06:20:03.050Z,77
2022-09-16T06:40:02.884Z,76
2022-09-16T07:00:02.680Z,76
2022-09-16T07:20:03.410Z,75
2022-09-16T07:40:03.450Z,73
2022-09-16T08:00:03.092Z,71
2022-09-16T08:20:03.140Z,68
2022-09-16T08:40:03.346Z,66
2022-09-16T09:00:03.312Z,65
2022-09-16T09:20:03.245Z,63
2022-09-16T09:40:03.372Z,63
2022-09-16T10:00:03.453Z,59
2022-09-16T10:20:03.387Z,54
2022-09-16T10:40:03.283Z,51
2022-09-16T11:00:03.090Z,48
2022-09-16T11:20:03.238Z,49
2022-09-16T11:40:03.355Z,48
2022-09-16T12:00:03.041Z,48
2022-09-16T12:20:02.936Z,49
2022-09-16T12:40:02.913Z,47
2022-09-16T13:00:02.861Z,46
2022-09-16T13:20:03.037Z,45
2022-09-16T13:40:03.015Z,45
2022-09-16T14:00:02.815Z,44
2022-09-16T14:20:02.779Z,43
2022-09-16T14:40:03.654Z,43
2022-09-16T15:00:03.526Z,43
2022-09-16T15:20:03.108Z,40
2022-09-16T15:40:02.904Z,40
2022-09-16T16:00:02.888Z,40
2022-09-16T16:20:02.803Z,41
2022-09-16T16:40:03.535Z,42
2022-09-16T17:00:03.809Z,44
2022-09-16T17:20:03.316Z,44
2022-09-16T17:40:03.042Z,45
2022-09-16T18:00:02.748Z,46
2022-09-16T18:20:07.467Z,47
2022-09-16T18:40:03.368Z,49
2022-09-16T19:00:03.303Z,50
2022-09-16T19:20:03.369Z,52
2022-09-16T19:40:03.228Z,52
2022-09-16T20:00:03.402Z,53
2022-09-16T20:20:03.474Z,57
2022-09-16T20:40:03.535Z,61
2022-09-16T21:00:03.146Z,65
2022-09-16T21:20:03.530Z,68
2022-09-16T21:40:03.455Z,71
2022-09-16T22:00:03.331Z,73
2022-09-16T22:20:03.423Z,74
2022-09-16T22:40:03.418Z,76
2022-09-16T23:00:03.031Z,78
2022-09-16T23:20:03.185Z,79
2022-09-16T23:40:02.736Z,80
